createdAt,value
2023-05-19T00:00:36.171Z,587.00
2023-05-19T00:01:36.185Z,587.00
2023-05-19T00:02:36.267Z,584.00
2023-05-19T00:03:36.206Z,585.00
2023-05-19T00:04:36.204Z,586.00
2023-05-19T00:05:36.236Z,589.00
2023-05-19T00:06:36.201Z,588.00
2023-05-19T00:07:36.187Z,586.00
2023-05-19T00:08:36.185Z,587.00
2023-05-19T00:09:36.177Z,588.00
2023-05-19T00:10:36.201Z,586.00
2023-05-19T00:11:36.187Z,588.00
2023-05-19T00:12:36.177Z,587.00
2023-05-19T00:13:36.165Z,585.00
2023-05-19T00:14:36.168Z,587.00
2023-05-19T00:15:36.213Z,587.00
2023-05-19T00:16:36.193Z,588.00
2023-05-19T00:17:36.186Z,586.00
2023-05-19T00:18:36.173Z,585.00
2023-05-19T00:19:36.163Z,584.00
2023-05-19T00:20:36.160Z,584.00
2023-05-19T00:21:36.152Z,583.00
2023-05-19T00:22:36.981Z,582.00
2023-05-19T00:23:36.132Z,582.00
2023-05-19T00:24:36.134Z,584.00
2023-05-19T00:25:36.147Z,585.00
2023-05-19T00:26:36.132Z,587.00
2023-05-19T00:27:36.149Z,589.00
2023-05-19T00:28:36.152Z,589.00
2023-05-19T00:29:36.159Z,588.00
2023-05-19T00:30:36.169Z,587.00
2023-05-19T00:31:36.178Z,588.00
2023-05-19T00:32:36.217Z,588.00
2023-05-19T00:33:36.142Z,587.00
2023-05-19T00:34:36.153Z,587.00
2023-05-19T00:35:36.148Z,585.00
2023-05-19T00:36:36.148Z,587.00
2023-05-19T00:37:36.135Z,589.00
2023-05-19T00:38:36.135Z,591.00
2023-05-19T00:39:36.133Z,593.00
2023-05-19T00:40:36.127Z,594.00
2023-05-19T00:41:36.125Z,594.00
2023-05-19T00:42:36.128Z,594.00
2023-05-19T00:43:36.128Z,591.00
2023-05-19T00:44:36.115Z,591.00
2023-05-19T00:45:36.138Z,593.00
2023-05-19T00:46:36.123Z,593.00
2023-05-19T00:47:37.028Z,592.00
2023-05-19T00:48:36.089Z,592.00
2023-05-19T00:49:36.094Z,591.00
2023-05-19T00:50:36.080Z,593.00
2023-05-19T00:51:36.069Z,592.00
2023-05-19T00:52:36.070Z,592.00
2023-05-19T00:53:36.072Z,591.00
2023-05-19T00:54:36.085Z,593.00
2023-05-19T00:55:36.280Z,593.00
2023-05-19T00:56:36.064Z,595.00
2023-05-19T00:57:36.084Z,597.00
2023-05-19T00:58:36.058Z,597.00
2023-05-19T00:59:36.040Z,598.00
2023-05-19T01:00:36.070Z,598.00
2023-05-19T01:01:36.049Z,595.00
2023-05-19T01:02:36.082Z,595.00
2023-05-19T01:03:36.112Z,595.00
2023-05-19T01:04:36.014Z,594.00
2023-05-19T01:05:36.010Z,594.00
2023-05-19T01:06:36.009Z,594.00
2023-05-19T01:07:35.991Z,594.00
2023-05-19T01:08:35.987Z,594.00
2023-05-19T01:09:35.996Z,595.00
2023-05-19T01:10:35.989Z,597.00
2023-05-19T01:11:35.989Z,596.00
2023-05-19T01:12:35.976Z,596.00
2023-05-19T01:13:35.989Z,595.00
2023-05-19T01:14:35.969Z,596.00
2023-05-19T01:15:35.971Z,594.00
2023-05-19T01:16:36.026Z,592.00
2023-05-19T01:17:36.013Z,593.00
2023-05-19T01:18:35.962Z,593.00
2023-05-19T01:19:35.954Z,593.00
2023-05-19T01:20:35.957Z,594.00
2023-05-19T01:21:35.962Z,596.00
2023-05-19T01:22:35.949Z,594.00
2023-05-19T01:23:35.932Z,592.00
2023-05-19T01:24:35.941Z,590.00
2023-05-19T01:25:35.939Z,591.00
2023-05-19T01:26:35.937Z,593.00
2023-05-19T01:27:35.925Z,593.00
2023-05-19T01:28:35.924Z,601.00
2023-05-19T01:29:35.918Z,601.00
2023-05-19T01:30:35.910Z,603.00
2023-05-19T01:31:35.954Z,599.00
2023-05-19T01:32:35.940Z,597.00
2023-05-19T01:33:35.909Z,595.00
2023-05-19T01:34:35.897Z,593.00
2023-05-19T01:35:35.905Z,590.00
2023-05-19T01:36:35.889Z,586.00
2023-05-19T01:37:35.888Z,588.00
2023-05-19T01:38:35.876Z,587.00
2023-05-19T01:39:35.883Z,588.00
2023-05-19T01:40:35.907Z,587.00
2023-05-19T01:41:35.905Z,589.00
2023-05-19T01:42:35.905Z,590.00
2023-05-19T01:43:35.929Z,591.00
2023-05-19T01:44:35.910Z,590.00
2023-05-19T01:45:35.956Z,589.00
2023-05-19T01:46:35.998Z,592.00
2023-05-19T01:47:35.995Z,589.00
2023-05-19T01:48:35.952Z,585.00
2023-05-19T01:49:35.963Z,585.00
2023-05-19T01:50:35.998Z,586.00
2023-05-19T01:51:36.028Z,583.00
2023-05-19T01:52:36.040Z,581.00
2023-05-19T01:53:36.102Z,582.00
2023-05-19T01:54:36.117Z,583.00
2023-05-19T01:55:36.117Z,583.00
2023-05-19T01:56:36.151Z,585.00
2023-05-19T01:57:36.176Z,582.00
2023-05-19T01:58:36.209Z,582.00
2023-05-19T01:59:36.235Z,581.00
2023-05-19T02:00:36.238Z,582.00
2023-05-19T02:01:36.301Z,583.00
2023-05-19T02:02:36.312Z,582.00
2023-05-19T02:03:36.276Z,583.00
2023-05-19T02:04:36.308Z,586.00
2023-05-19T02:05:36.273Z,587.00
2023-05-19T02:06:36.275Z,586.00
2023-05-19T02:07:36.286Z,585.00
2023-05-19T02:08:36.272Z,585.00
2023-05-19T02:09:36.280Z,584.00
2023-05-19T02:10:36.298Z,585.00
2023-05-19T02:11:36.322Z,586.00
2023-05-19T02:12:36.359Z,585.00
2023-05-19T02:13:36.383Z,587.00
2023-05-19T02:14:36.398Z,588.00
2023-05-19T02:15:36.481Z,585.00
2023-05-19T02:16:36.455Z,586.00
2023-05-19T02:17:36.583Z,585.00
2023-05-19T02:18:36.674Z,587.00
2023-05-19T02:19:36.597Z,589.00
2023-05-19T02:20:36.639Z,589.00
2023-05-19T02:21:36.710Z,587.00
2023-05-19T02:22:36.760Z,588.00
2023-05-19T02:23:36.815Z,590.00
2023-05-19T02:24:36.862Z,593.00
2023-05-19T02:25:36.928Z,591.00
2023-05-19T02:26:36.967Z,593.00
2023-05-19T02:27:37.021Z,591.00
2023-05-19T02:28:37.055Z,592.00
2023-05-19T02:29:37.536Z,589.00
2023-05-19T02:30:37.142Z,588.00
2023-05-19T02:31:37.258Z,589.00
2023-05-19T02:32:37.334Z,584.00
2023-05-19T02:33:37.266Z,583.00
2023-05-19T02:34:37.313Z,583.00
2023-05-19T02:35:37.355Z,583.00
2023-05-19T02:36:37.404Z,583.00
2023-05-19T02:37:37.438Z,583.00
2023-05-19T02:38:37.474Z,584.00
2023-05-19T02:39:37.526Z,585.00
2023-05-19T02:40:37.576Z,584.00
2023-05-19T02:41:37.624Z,584.00
2023-05-19T02:42:37.686Z,584.00
2023-05-19T02:43:37.781Z,584.00
2023-05-19T02:44:37.787Z,583.00
2023-05-19T02:45:37.846Z,582.00
2023-05-19T02:46:37.952Z,582.00
2023-05-19T02:47:37.997Z,582.00
2023-05-19T02:48:38.001Z,586.00
2023-05-19T02:49:38.077Z,587.00
2023-05-19T02:50:38.104Z,586.00
2023-05-19T02:51:38.160Z,590.00
2023-05-19T02:52:38.211Z,591.00
2023-05-19T02:53:38.261Z,592.00
2023-05-19T02:54:38.313Z,591.00
2023-05-19T02:55:38.382Z,586.00
2023-05-19T02:56:38.426Z,587.00
2023-05-19T02:57:38.477Z,587.00
2023-05-19T02:58:38.540Z,586.00
2023-05-19T02:59:38.559Z,586.00
2023-05-19T03:00:38.594Z,585.00
2023-05-19T03:01:38.655Z,585.00
2023-05-19T03:02:38.755Z,586.00
2023-05-19T03:03:38.797Z,586.00
2023-05-19T03:04:38.794Z,586.00
2023-05-19T03:05:38.831Z,585.00
2023-05-19T03:06:38.868Z,585.00
2023-05-19T03:07:38.895Z,585.00
2023-05-19T03:08:42.193Z,584.00
2023-05-19T03:09:38.933Z,588.00
2023-05-19T03:10:38.907Z,588.00
2023-05-19T03:11:38.906Z,587.00
2023-05-19T03:12:38.884Z,586.00
2023-05-19T03:13:38.882Z,589.00
2023-05-19T03:14:38.877Z,587.00
2023-05-19T03:15:38.885Z,586.00
2023-05-19T03:16:38.914Z,584.00
2023-05-19T03:17:38.907Z,587.00
2023-05-19T03:18:38.887Z,588.00
2023-05-19T03:19:38.835Z,588.00
2023-05-19T03:20:41.506Z,589.00
2023-05-19T03:21:38.830Z,589.00
2023-05-19T03:22:38.831Z,588.00
2023-05-19T03:23:38.813Z,587.00
2023-05-19T03:24:38.814Z,585.00
2023-05-19T03:25:38.798Z,585.00
2023-05-19T03:26:38.801Z,580.00
2023-05-19T03:27:38.781Z,579.00
2023-05-19T03:28:38.778Z,578.00
2023-05-19T03:29:38.773Z,579.00
2023-05-19T03:30:38.764Z,580.00
2023-05-19T03:31:38.769Z,581.00
2023-05-19T03:32:38.913Z,576.00
2023-05-19T03:33:38.794Z,576.00
2023-05-19T03:34:38.740Z,576.00
2023-05-19T03:35:38.730Z,577.00
2023-05-19T03:36:38.724Z,575.00
2023-05-19T03:37:38.730Z,576.00
2023-05-19T03:38:38.710Z,575.00
2023-05-19T03:39:38.727Z,575.00
2023-05-19T03:40:38.694Z,576.00
2023-05-19T03:41:38.696Z,575.00
2023-05-19T03:42:38.684Z,579.00
2023-05-19T03:43:38.672Z,579.00
2023-05-19T03:44:38.701Z,577.00
2023-05-19T03:45:38.758Z,578.00
2023-05-19T03:46:38.665Z,578.00
2023-05-19T03:47:38.689Z,576.00
2023-05-19T03:48:38.653Z,577.00
2023-05-19T03:49:38.631Z,578.00
2023-05-19T03:50:38.642Z,580.00
2023-05-19T03:51:38.618Z,580.00
2023-05-19T03:52:38.605Z,578.00
2023-05-19T03:53:38.601Z,580.00
2023-05-19T03:54:38.590Z,581.00
2023-05-19T03:55:38.587Z,582.00
2023-05-19T03:56:38.580Z,580.00
2023-05-19T03:57:38.563Z,582.00
2023-05-19T03:58:38.558Z,582.00
2023-05-19T03:59:38.558Z,581.00
2023-05-19T04:00:38.539Z,581.00
2023-05-19T04:01:38.602Z,580.00
2023-05-19T04:02:38.745Z,580.00
2023-05-19T04:03:38.822Z,578.00
2023-05-19T04:04:38.819Z,576.00
2023-05-19T04:05:38.887Z,577.00
2023-05-19T04:06:38.921Z,578.00
2023-05-19T04:07:39.561Z,580.00
2023-05-19T04:08:39.058Z,580.00
2023-05-19T04:09:39.097Z,581.00
2023-05-19T04:10:39.161Z,577.00
2023-05-19T04:11:39.220Z,575.00
2023-05-19T04:12:39.281Z,573.00
2023-05-19T04:13:39.339Z,571.00
2023-05-19T04:14:39.405Z,573.00
2023-05-19T04:15:39.486Z,572.00
2023-05-19T04:16:39.529Z,573.00
2023-05-19T04:17:39.621Z,572.00
2023-05-19T04:18:39.712Z,574.00
2023-05-19T04:19:39.717Z,576.00
2023-05-19T04:20:39.805Z,577.00
2023-05-19T04:21:39.844Z,579.00
2023-05-19T04:22:39.905Z,580.00
2023-05-19T04:23:39.998Z,580.00
2023-05-19T04:24:40.047Z,579.00
2023-05-19T04:25:40.118Z,579.00
2023-05-19T04:26:40.159Z,578.00
2023-05-19T04:27:40.230Z,579.00
2023-05-19T04:28:40.288Z,579.00
2023-05-19T04:29:40.354Z,576.00
2023-05-19T04:30:40.419Z,579.00
2023-05-19T04:31:40.537Z,579.00
2023-05-19T04:32:40.589Z,580.00
2023-05-19T04:33:40.605Z,580.00
2023-05-19T04:34:40.692Z,581.00
2023-05-19T04:35:40.720Z,580.00
2023-05-19T04:36:40.785Z,579.00
2023-05-19T04:37:40.850Z,580.00
2023-05-19T04:38:40.904Z,581.00
2023-05-19T04:39:40.965Z,579.00
2023-05-19T04:40:41.028Z,579.00
2023-05-19T04:41:41.090Z,578.00
2023-05-19T04:42:41.140Z,580.00
2023-05-19T04:43:41.199Z,579.00
2023-05-19T04:44:41.273Z,579.00
2023-05-19T04:45:41.322Z,578.00
2023-05-19T04:46:41.418Z,577.00
2023-05-19T04:47:41.461Z,577.00
2023-05-19T04:48:41.649Z,579.00
2023-05-19T04:49:41.558Z,581.00
2023-05-19T04:50:41.610Z,580.00
2023-05-19T04:51:41.697Z,581.00
2023-05-19T04:52:41.771Z,580.00
2023-05-19T04:53:41.807Z,578.00
2023-05-19T04:54:41.931Z,578.00
2023-05-19T04:55:41.925Z,578.00
2023-05-19T04:56:42.060Z,578.00
2023-05-19T04:57:42.033Z,577.00
2023-05-19T04:58:42.123Z,578.00
2023-05-19T04:59:42.161Z,579.00
2023-05-19T05:00:42.218Z,579.00
2023-05-19T05:01:42.365Z,580.00
2023-05-19T05:02:42.395Z,580.00
2023-05-19T05:03:42.507Z,579.00
2023-05-19T05:04:42.488Z,578.00
2023-05-19T05:05:42.528Z,578.00
2023-05-19T05:06:42.631Z,575.00
2023-05-19T05:07:42.644Z,575.00
2023-05-19T05:08:42.699Z,574.00
2023-05-19T05:09:42.766Z,574.00
2023-05-19T05:10:42.798Z,576.00
2023-05-19T05:11:42.872Z,578.00
2023-05-19T05:12:42.928Z,576.00
2023-05-19T05:13:43.014Z,577.00
2023-05-19T05:14:43.073Z,576.00
2023-05-19T05:15:43.121Z,576.00
2023-05-19T05:16:43.288Z,577.00
2023-05-19T05:17:43.249Z,578.00
2023-05-19T05:18:44.833Z,576.00
2023-05-19T05:19:43.345Z,577.00
2023-05-19T05:20:43.417Z,575.00
2023-05-19T05:21:43.460Z,575.00
2023-05-19T05:22:43.535Z,576.00
2023-05-19T05:23:43.621Z,575.00
2023-05-19T05:24:43.628Z,576.00
2023-05-19T05:25:43.682Z,578.00
2023-05-19T05:26:43.747Z,578.00
2023-05-19T05:27:43.823Z,579.00
2023-05-19T05:28:43.852Z,578.00
2023-05-19T05:29:43.917Z,577.00
2023-05-19T05:30:43.962Z,577.00
2023-05-19T05:31:44.016Z,580.00
2023-05-19T05:32:44.125Z,580.00
2023-05-19T05:33:44.177Z,577.00
2023-05-19T05:34:44.193Z,573.00
2023-05-19T05:35:44.236Z,573.00
2023-05-19T05:36:44.290Z,574.00
2023-05-19T05:37:44.345Z,574.00
2023-05-19T05:38:44.394Z,573.00
2023-05-19T05:39:44.460Z,573.00
2023-05-19T05:40:44.516Z,572.00
2023-05-19T05:41:44.569Z,573.00
2023-05-19T05:42:44.609Z,575.00
2023-05-19T05:43:44.669Z,574.00
2023-05-19T05:44:44.724Z,572.00
2023-05-19T05:45:44.815Z,572.00
2023-05-19T05:46:44.835Z,570.00
2023-05-19T05:47:44.919Z,568.00
2023-05-19T05:48:44.929Z,567.00
2023-05-19T05:49:45.050Z,571.00
2023-05-19T05:50:45.039Z,570.00
2023-05-19T05:51:54.626Z,576.00
2023-05-19T05:52:46.086Z,575.00
2023-05-19T05:53:45.078Z,574.00
2023-05-19T05:54:45.069Z,575.00
2023-05-19T05:55:45.053Z,577.00
2023-05-19T05:56:45.053Z,579.00
2023-05-19T05:57:45.052Z,576.00
2023-05-19T05:58:45.035Z,574.00
2023-05-19T05:59:45.019Z,574.00
2023-05-19T06:00:45.028Z,573.00
2023-05-19T06:01:45.027Z,574.00
2023-05-19T06:02:45.097Z,572.00
2023-05-19T06:03:45.233Z,569.00
2023-05-19T06:04:45.159Z,567.00
2023-05-19T06:05:45.263Z,565.00
2023-05-19T06:06:45.243Z,566.00
2023-05-19T06:07:45.292Z,565.00
2023-05-19T06:08:45.351Z,568.00
2023-05-19T06:09:45.407Z,570.00
2023-05-19T06:10:47.223Z,568.00
2023-05-19T06:11:45.518Z,569.00
2023-05-19T06:12:45.593Z,571.00
2023-05-19T06:13:45.625Z,571.00
2023-05-19T06:14:45.689Z,572.00
2023-05-19T06:15:45.759Z,576.00
2023-05-19T06:16:45.798Z,576.00
2023-05-19T06:17:45.870Z,576.00
2023-05-19T06:18:45.944Z,576.00
2023-05-19T06:19:45.975Z,574.00
2023-05-19T06:20:46.015Z,576.00
2023-05-19T06:21:46.070Z,577.00
2023-05-19T06:22:46.129Z,574.00
2023-05-19T06:23:46.190Z,574.00
2023-05-19T06:24:46.249Z,574.00
2023-05-19T06:25:46.313Z,573.00
2023-05-19T06:26:46.361Z,574.00
2023-05-19T06:27:46.455Z,573.00
2023-05-19T06:28:46.465Z,573.00
2023-05-19T06:29:46.533Z,573.00
2023-05-19T06:30:46.583Z,570.00
2023-05-19T06:31:46.722Z,570.00
2023-05-19T06:32:46.714Z,567.00
2023-05-19T06:33:46.758Z,568.00
2023-05-19T06:34:46.818Z,571.00
2023-05-19T06:35:46.868Z,573.00
2023-05-19T06:36:46.927Z,572.00
2023-05-19T06:37:46.980Z,573.00
2023-05-19T06:38:47.037Z,574.00
2023-05-19T06:39:47.078Z,574.00
2023-05-19T06:40:47.142Z,574.00
2023-05-19T06:41:47.194Z,575.00
2023-05-19T06:42:47.260Z,578.00
2023-05-19T06:43:47.314Z,575.00
2023-05-19T06:44:47.378Z,573.00
2023-05-19T06:45:47.428Z,570.00
2023-05-19T06:46:47.554Z,572.00
2023-05-19T06:47:47.564Z,575.00
2023-05-19T06:48:47.593Z,575.00
2023-05-19T06:49:47.664Z,574.00
2023-05-19T06:50:47.711Z,574.00
2023-05-19T06:51:47.772Z,573.00
2023-05-19T06:52:47.832Z,573.00
2023-05-19T06:53:47.862Z,573.00
2023-05-19T06:54:47.882Z,577.00
2023-05-19T06:55:58.179Z,576.00
2023-05-19T06:56:48.921Z,576.00
2023-05-19T06:57:47.921Z,576.00
2023-05-19T06:58:47.902Z,576.00
2023-05-19T06:59:47.909Z,574.00
2023-05-19T07:00:47.876Z,573.00
2023-05-19T07:01:47.924Z,573.00
2023-05-19T07:02:47.919Z,573.00
2023-05-19T07:03:47.946Z,571.00
2023-05-19T07:04:47.850Z,572.00
2023-05-19T07:05:47.843Z,574.00
2023-05-19T07:06:47.846Z,574.00
2023-05-19T07:07:47.827Z,570.00
2023-05-19T07:08:47.827Z,567.00
2023-05-19T07:09:47.850Z,567.00
2023-05-19T07:10:47.852Z,567.00
2023-05-19T07:11:47.908Z,567.00
2023-05-19T07:12:47.929Z,567.00
2023-05-19T07:13:47.980Z,568.00
2023-05-19T07:14:48.016Z,569.00
2023-05-19T07:15:48.095Z,568.00
2023-05-19T07:16:48.180Z,570.00
2023-05-19T07:17:48.192Z,571.00
2023-05-19T07:18:48.216Z,567.00
2023-05-19T07:19:48.244Z,568.00
2023-05-19T07:20:48.280Z,571.00
2023-05-19T07:21:48.327Z,569.00
2023-05-19T07:22:48.366Z,569.00
2023-05-19T07:23:48.432Z,569.00
2023-05-19T07:24:48.455Z,568.00
2023-05-19T07:25:48.488Z,568.00
2023-05-19T07:26:48.530Z,566.00
2023-05-19T07:27:48.568Z,564.00
2023-05-19T07:28:48.614Z,563.00
2023-05-19T07:29:48.648Z,562.00
2023-05-19T07:30:48.693Z,564.00
2023-05-19T07:31:48.749Z,565.00
2023-05-19T07:32:48.809Z,564.00
2023-05-19T07:33:48.821Z,562.00
2023-05-19T07:34:48.862Z,562.00
2023-05-19T07:35:48.905Z,564.00
2023-05-19T07:36:48.944Z,564.00
2023-05-19T07:37:48.980Z,565.00
2023-05-19T07:38:49.087Z,567.00
2023-05-19T07:39:49.060Z,570.00
2023-05-19T07:40:49.098Z,570.00
2023-05-19T07:41:49.144Z,569.00
2023-05-19T07:42:49.186Z,569.00
2023-05-19T07:43:49.213Z,568.00
2023-05-19T07:44:49.250Z,570.00
2023-05-19T07:45:49.346Z,567.00
2023-05-19T07:46:49.323Z,565.00
2023-05-19T07:47:49.454Z,566.00
2023-05-19T07:48:49.421Z,564.00
2023-05-19T07:49:51.665Z,565.00
2023-05-19T07:50:49.505Z,564.00
2023-05-19T07:51:49.551Z,561.00
2023-05-19T07:52:49.572Z,562.00
2023-05-19T07:53:49.610Z,564.00
2023-05-19T07:54:49.636Z,565.00
2023-05-19T07:55:49.674Z,564.00
2023-05-19T07:56:49.710Z,564.00
2023-05-19T07:57:49.746Z,566.00
2023-05-19T07:58:49.790Z,567.00
2023-05-19T07:59:49.803Z,567.00
2023-05-19T08:00:49.842Z,568.00
2023-05-19T08:01:49.866Z,568.00
2023-05-19T08:02:49.958Z,570.00
2023-05-19T08:03:50.162Z,568.00
2023-05-19T08:04:50.087Z,571.00
2023-05-19T08:05:49.980Z,570.00
2023-05-19T08:06:50.017Z,567.00
2023-05-19T08:07:50.064Z,566.00
2023-05-19T08:08:50.076Z,568.00
2023-05-19T08:09:50.114Z,568.00
2023-05-19T08:10:50.136Z,564.00
2023-05-19T08:11:50.168Z,566.00
2023-05-19T08:12:50.203Z,565.00
2023-05-19T08:13:50.235Z,565.00
2023-05-19T08:14:50.265Z,562.00
2023-05-19T08:15:50.309Z,562.00
2023-05-19T08:16:50.317Z,562.00
2023-05-19T08:17:50.397Z,563.00
2023-05-19T08:18:50.424Z,563.00
2023-05-19T08:19:50.453Z,563.00
2023-05-19T08:20:50.438Z,563.00
2023-05-19T08:21:50.474Z,561.00
2023-05-19T08:22:50.504Z,560.00
2023-05-19T08:23:50.524Z,560.00
2023-05-19T08:24:50.552Z,562.00
2023-05-19T08:25:50.577Z,563.00
2023-05-19T08:26:50.605Z,565.00
2023-05-19T08:27:50.628Z,565.00
2023-05-19T08:28:50.651Z,565.00
2023-05-19T08:29:50.683Z,561.00
2023-05-19T08:30:50.704Z,560.00
2023-05-19T08:31:50.822Z,562.00
2023-05-19T08:32:50.787Z,563.00
2023-05-19T08:33:50.772Z,566.00
2023-05-19T08:34:50.793Z,566.00
2023-05-19T08:35:50.877Z,566.00
2023-05-19T08:36:50.845Z,567.00
2023-05-19T08:37:50.871Z,568.00
2023-05-19T08:38:50.890Z,568.00
2023-05-19T08:39:50.921Z,569.00
2023-05-19T08:40:50.939Z,568.00
2023-05-19T08:41:50.972Z,567.00
2023-05-19T08:42:51.004Z,565.00
2023-05-19T08:43:51.003Z,564.00
2023-05-19T08:44:51.037Z,562.00
2023-05-19T08:45:51.049Z,560.00
2023-05-19T08:46:51.133Z,557.00
2023-05-19T08:47:51.186Z,558.00
2023-05-19T08:48:51.126Z,556.00
2023-05-19T08:49:51.212Z,558.00
2023-05-19T08:50:51.175Z,559.00
2023-05-19T08:51:51.206Z,558.00
2023-05-19T08:52:52.991Z,559.00
2023-05-19T08:53:51.237Z,556.00
2023-05-19T08:54:51.241Z,558.00
2023-05-19T08:55:51.251Z,560.00
2023-05-19T08:56:51.270Z,558.00
2023-05-19T08:57:51.300Z,561.00
2023-05-19T08:58:51.343Z,563.00
2023-05-19T08:59:51.351Z,562.00
2023-05-19T09:00:51.413Z,559.00
2023-05-19T09:01:51.367Z,559.00
2023-05-19T09:03:00.197Z,560.00
2023-05-19T09:03:52.443Z,561.00
2023-05-19T09:04:51.442Z,559.00
2023-05-19T09:05:51.579Z,561.00
2023-05-19T09:06:51.351Z,558.00
2023-05-19T09:07:51.352Z,557.00
2023-05-19T09:08:51.339Z,555.00
2023-05-19T09:09:51.329Z,555.00
2023-05-19T09:10:51.321Z,553.00
2023-05-19T09:11:51.340Z,552.00
2023-05-19T09:12:51.302Z,552.00
2023-05-19T09:13:51.308Z,550.00
2023-05-19T09:14:51.302Z,550.00
2023-05-19T09:15:51.290Z,551.00
2023-05-19T09:16:51.306Z,551.00
2023-05-19T09:17:51.355Z,552.00
2023-05-19T09:18:51.301Z,553.00
2023-05-19T09:19:51.244Z,556.00
2023-05-19T09:20:51.248Z,557.00
2023-05-19T09:21:51.243Z,556.00
2023-05-19T09:22:51.231Z,557.00
2023-05-19T09:23:51.225Z,560.00
2023-05-19T09:24:51.210Z,561.00
2023-05-19T09:25:51.216Z,563.00
2023-05-19T09:26:51.223Z,563.00
2023-05-19T09:27:51.263Z,562.00
2023-05-19T09:28:51.267Z,561.00
2023-05-19T09:29:51.277Z,560.00
2023-05-19T09:30:51.290Z,561.00
2023-05-19T09:31:51.360Z,557.00
2023-05-19T09:32:51.345Z,555.00
2023-05-19T09:33:51.330Z,555.00
2023-05-19T09:34:51.339Z,555.00
2023-05-19T09:35:51.355Z,555.00
2023-05-19T09:36:51.368Z,553.00
2023-05-19T09:37:51.393Z,554.00
2023-05-19T09:38:51.393Z,552.00
2023-05-19T09:39:51.402Z,550.00
2023-05-19T09:40:51.415Z,550.00
2023-05-19T09:41:51.443Z,554.00
2023-05-19T09:42:51.435Z,555.00
2023-05-19T09:43:51.450Z,554.00
2023-05-19T09:44:51.465Z,553.00
2023-05-19T09:45:51.489Z,550.00
2023-05-19T09:46:51.501Z,550.00
2023-05-19T09:47:51.509Z,552.00
2023-05-19T09:48:51.502Z,554.00
2023-05-19T09:49:51.512Z,553.00
2023-05-19T09:50:51.516Z,552.00
2023-05-19T09:51:51.545Z,552.00
2023-05-19T09:52:51.540Z,554.00
2023-05-19T09:53:51.558Z,554.00
2023-05-19T09:54:51.561Z,552.00
2023-05-19T09:55:51.564Z,549.00
2023-05-19T09:56:51.591Z,549.00
2023-05-19T09:57:51.620Z,548.00
2023-05-19T09:58:51.633Z,551.00
2023-05-19T09:59:51.644Z,549.00
2023-05-19T10:00:51.647Z,550.00
2023-05-19T10:01:51.694Z,548.00
2023-05-19T10:02:51.726Z,549.00
2023-05-19T10:03:51.677Z,550.00
2023-05-19T10:04:51.732Z,550.00
2023-05-19T10:05:51.683Z,551.00
2023-05-19T10:06:51.687Z,549.00
2023-05-19T10:07:51.722Z,550.00
2023-05-19T10:08:51.696Z,550.00
2023-05-19T10:09:51.707Z,552.00
2023-05-19T10:10:51.730Z,552.00
2023-05-19T10:11:51.722Z,551.00
2023-05-19T10:12:51.742Z,550.00
2023-05-19T10:13:51.738Z,547.00
2023-05-19T10:14:51.752Z,546.00
2023-05-19T10:16:51.785Z,550.00
2023-05-19T10:17:51.807Z,552.00
2023-05-19T10:18:51.770Z,552.00
2023-05-19T10:19:51.721Z,551.00
2023-05-19T10:20:51.718Z,550.00
2023-05-19T10:21:51.705Z,550.00
2023-05-19T10:22:51.700Z,546.00
2023-05-19T10:23:51.697Z,544.00
2023-05-19T10:24:51.698Z,546.00
2023-05-19T10:25:51.709Z,548.00
2023-05-19T10:26:51.667Z,549.00
2023-05-19T10:27:51.662Z,548.00
2023-05-19T10:28:51.656Z,548.00
2023-05-19T10:29:51.660Z,547.00
2023-05-19T10:30:51.637Z,544.00
2023-05-19T10:31:51.747Z,543.00
2023-05-19T10:32:51.672Z,544.00
2023-05-19T10:33:51.614Z,545.00
2023-05-19T10:34:51.607Z,543.00
2023-05-19T10:35:51.601Z,544.00
2023-05-19T10:36:51.597Z,547.00
2023-05-19T10:37:51.588Z,545.00
2023-05-19T10:38:51.572Z,546.00
2023-05-19T10:39:51.593Z,548.00
2023-05-19T10:40:51.577Z,550.00
2023-05-19T10:41:51.563Z,550.00
2023-05-19T10:42:51.544Z,550.00
2023-05-19T10:43:51.537Z,550.00
2023-05-19T10:44:51.544Z,549.00
2023-05-19T10:45:51.523Z,547.00
2023-05-19T10:46:51.994Z,544.00
2023-05-19T10:47:51.598Z,542.00
2023-05-19T10:48:51.509Z,545.00
2023-05-19T10:49:51.494Z,547.00
2023-05-19T10:50:51.489Z,546.00
2023-05-19T10:51:51.479Z,544.00
2023-05-19T10:52:51.468Z,544.00
2023-05-19T10:53:51.462Z,542.00
2023-05-19T10:54:51.503Z,542.00
2023-05-19T10:55:51.439Z,542.00
2023-05-19T10:56:51.443Z,542.00
2023-05-19T10:57:51.433Z,542.00
2023-05-19T10:58:51.409Z,542.00
2023-05-19T10:59:51.443Z,542.00
2023-05-19T11:00:51.404Z,542.00
2023-05-19T11:01:51.416Z,540.00
2023-05-19T11:02:51.406Z,538.00
2023-05-19T11:03:51.416Z,537.00
2023-05-19T11:04:52.044Z,539.00
2023-05-19T11:05:51.374Z,538.00
2023-05-19T11:06:51.380Z,540.00
2023-05-19T11:07:51.352Z,538.00
2023-05-19T11:08:51.344Z,539.00
2023-05-19T11:09:51.344Z,539.00
2023-05-19T11:10:51.334Z,537.00
2023-05-19T11:11:51.332Z,535.00
2023-05-19T11:12:52.122Z,534.00
2023-05-19T11:13:51.312Z,535.00
2023-05-19T11:14:52.221Z,534.00
2023-05-19T11:15:51.356Z,531.00
2023-05-19T11:16:51.309Z,529.00
2023-05-19T11:17:51.311Z,530.00
2023-05-19T11:18:51.313Z,532.00
2023-05-19T11:19:51.267Z,531.00
2023-05-19T11:20:51.298Z,529.00
2023-05-19T11:21:51.300Z,529.00
2023-05-19T11:22:51.248Z,530.00
2023-05-19T11:23:51.322Z,528.00
2023-05-19T11:24:51.223Z,531.00
2023-05-19T11:25:51.309Z,531.00
2023-05-19T11:26:51.206Z,533.00
2023-05-19T11:27:51.218Z,531.00
2023-05-19T11:28:51.189Z,530.00
2023-05-19T11:29:51.200Z,530.00
2023-05-19T11:30:51.174Z,528.00
2023-05-19T11:31:51.240Z,528.00
2023-05-19T11:32:51.794Z,528.00
2023-05-19T11:33:51.156Z,528.00
2023-05-19T11:34:51.150Z,527.00
2023-05-19T11:35:51.179Z,525.00
2023-05-19T11:36:51.139Z,522.00
2023-05-19T11:37:51.150Z,522.00
2023-05-19T11:38:51.119Z,523.00
2023-05-19T11:39:51.106Z,526.00
2023-05-19T11:40:51.095Z,526.00
2023-05-19T11:41:51.110Z,527.00
2023-05-19T11:42:51.085Z,526.00
2023-05-19T11:43:51.079Z,526.00
2023-05-19T11:44:51.104Z,527.00
2023-05-19T11:45:51.102Z,527.00
2023-05-19T11:46:51.154Z,528.00
2023-05-19T11:48:01.277Z,530.00
2023-05-19T11:48:52.040Z,528.00
2023-05-19T11:49:51.039Z,527.00
2023-05-19T11:50:51.089Z,526.00
2023-05-19T11:51:51.039Z,527.00
2023-05-19T11:52:51.016Z,527.00
2023-05-19T11:53:51.007Z,531.00
2023-05-19T11:54:51.004Z,530.00
2023-05-19T11:55:51.360Z,533.00
2023-05-19T11:56:50.992Z,533.00
2023-05-19T11:58:02.768Z,535.00
2023-05-19T11:58:51.974Z,537.00
2023-05-19T11:59:50.964Z,535.00
2023-05-19T12:00:50.964Z,536.00
2023-05-19T12:01:50.954Z,535.00
2023-05-19T12:02:51.018Z,533.00
2023-05-19T12:03:51.014Z,531.00
2023-05-19T12:04:50.980Z,532.00
2023-05-19T12:05:51.134Z,530.00
2023-05-19T12:06:50.920Z,531.00
2023-05-19T12:07:50.900Z,530.00
2023-05-19T12:08:50.912Z,529.00
2023-05-19T12:09:50.907Z,527.00
2023-05-19T12:10:50.904Z,528.00
2023-05-19T12:11:50.876Z,531.00
2023-05-19T12:12:50.869Z,532.00
2023-05-19T12:13:50.872Z,530.00
2023-05-19T12:14:50.853Z,529.00
2023-05-19T12:15:50.894Z,531.00
2023-05-19T12:16:50.926Z,533.00
2023-05-19T12:17:50.885Z,532.00
2023-05-19T12:18:50.848Z,530.00
2023-05-19T12:19:50.835Z,531.00
2023-05-19T12:20:50.802Z,532.00
2023-05-19T12:21:50.810Z,532.00
2023-05-19T12:22:50.807Z,529.00
2023-05-19T12:23:50.793Z,529.00
2023-05-19T12:24:50.783Z,525.00
2023-05-19T12:25:50.782Z,526.00
2023-05-19T12:26:50.766Z,527.00
2023-05-19T12:27:50.767Z,529.00
2023-05-19T12:28:50.754Z,529.00
2023-05-19T12:29:50.748Z,526.00